createdAt,value
2022-11-18T00:01:14.330Z,9.60
2022-11-18T00:03:42.581Z,9.50
2022-11-18T00:06:18.554Z,9.50
2022-11-18T00:08:46.286Z,9.50
2022-11-18T00:11:37.708Z,9.60
2022-11-18T00:14:25.029Z,9.50
2022-11-18T00:17:03.664Z,9.60
2022-11-18T00:19:34.697Z,9.50
2022-11-18T00:22:02.447Z,9.50
2022-11-18T00:24:29.768Z,9.40
2022-11-18T00:26:57.292Z,9.80
2022-11-18T00:29:28.244Z,9.30
2022-11-18T00:31:56.843Z,9.40
2022-11-18T00:34:26.137Z,9.40
2022-11-18T00:36:53.540Z,9.40
2022-11-18T00:39:21.476Z,9.40
2022-11-18T00:42:08.155Z,9.40
2022-11-18T00:44:35.633Z,9.30
2022-11-18T00:47:03.484Z,9.40
2022-11-18T00:49:30.941Z,9.40
2022-11-18T00:51:58.309Z,9.40
2022-11-18T00:54:25.566Z,9.40
2022-11-18T00:56:52.850Z,9.40
2022-11-18T00:59:20.461Z,9.40
2022-11-18T01:01:49.227Z,9.50
2022-11-18T01:04:16.740Z,9.50
2022-11-18T01:06:44.282Z,9.50
2022-11-18T01:09:11.737Z,9.50
2022-11-18T01:11:57.836Z,9.50
2022-11-18T01:14:26.297Z,9.50
2022-11-18T01:16:57.021Z,9.50
2022-11-18T01:19:25.356Z,9.40
2022-11-18T01:21:52.850Z,9.50
2022-11-18T01:24:20.259Z,9.50
2022-11-18T01:29:28.798Z,9.60
2022-11-18T01:32:22.778Z,10.00
2022-11-18T01:34:44.061Z,9.50
2022-11-18T01:37:12.134Z,9.50
2022-11-18T01:39:39.455Z,9.50
2022-11-18T01:42:16.020Z,9.50
2022-11-18T01:45:10.151Z,9.50
2022-11-18T01:47:47.945Z,9.70
2022-11-18T01:50:28.490Z,9.40
2022-11-18T01:53:03.400Z,9.60
2022-11-18T01:55:35.416Z,9.50
2022-11-18T01:58:10.638Z,9.60
2022-11-18T02:00:38.839Z,9.60
2022-11-18T02:03:07.158Z,9.60
2022-11-18T02:05:36.058Z,9.60
2022-11-18T02:08:05.911Z,9.60
2022-11-18T02:10:33.191Z,9.60
2022-11-18T02:13:01.270Z,9.60
2022-11-18T02:15:59.164Z,9.60
2022-11-18T02:18:44.559Z,9.60
2022-11-18T02:21:34.193Z,9.60
2022-11-18T02:24:16.310Z,9.70
2022-11-18T02:26:54.772Z,9.70
2022-11-18T02:29:29.564Z,9.60
2022-11-18T02:32:09.895Z,8.70
2022-11-18T02:35:00.796Z,9.60
2022-11-18T02:37:44.965Z,9.60
2022-11-18T02:40:18.196Z,9.60
2022-11-18T02:42:50.707Z,9.60
2022-11-18T02:45:21.052Z,9.60
2022-11-18T02:47:50.287Z,9.60
2022-11-18T02:50:22.917Z,9.70
2022-11-18T02:52:54.839Z,9.70
2022-11-18T02:55:23.813Z,11.00
2022-11-18T02:57:52.202Z,9.60
2022-11-18T03:00:19.479Z,9.60
2022-11-18T03:02:49.111Z,9.60
2022-11-18T03:05:26.422Z,9.60
2022-11-18T03:08:03.849Z,9.60
2022-11-18T03:10:37.355Z,9.60
2022-11-18T03:13:14.865Z,9.60
2022-11-18T03:15:55.523Z,9.50
2022-11-18T03:18:31.854Z,9.50
2022-11-18T03:21:11.789Z,9.50
2022-11-18T03:23:51.948Z,9.50
2022-11-18T03:26:29.960Z,9.50
2022-11-18T03:29:05.076Z,9.50
2022-11-18T03:31:35.556Z,9.70
2022-11-18T03:34:11.481Z,9.50
2022-11-18T03:36:43.453Z,9.80
2022-11-18T03:39:13.973Z,9.50
2022-11-18T03:41:48.617Z,9.50
2022-11-18T03:44:21.431Z,9.40
2022-11-18T03:46:57.956Z,9.50
2022-11-18T03:49:30.520Z,9.50
2022-11-18T03:52:04.128Z,9.40
2022-11-18T03:54:34.241Z,9.40
2022-11-18T03:57:07.233Z,9.50
2022-11-18T03:59:57.088Z,9.50
2022-11-18T04:02:26.176Z,9.50
2022-11-18T04:04:55.320Z,9.40
2022-11-18T04:07:51.318Z,9.40
2022-11-18T04:10:21.887Z,9.40
2022-11-18T04:13:06.132Z,9.40
2022-11-18T04:15:38.174Z,9.60
2022-11-18T04:18:05.742Z,9.40
2022-11-18T04:20:33.998Z,9.30
2022-11-18T04:23:01.510Z,9.30
2022-11-18T04:25:28.748Z,9.30
2022-11-18T04:27:56.006Z,9.30
2022-11-18T04:30:23.339Z,9.30
2022-11-18T04:32:50.630Z,9.30
2022-11-18T04:35:18.022Z,9.30
2022-11-18T04:37:45.292Z,9.30
2022-11-18T04:40:12.943Z,9.30
2022-11-18T04:42:40.365Z,9.30
2022-11-18T04:45:08.575Z,9.30
2022-11-18T04:47:36.323Z,9.40
2022-11-18T04:50:04.399Z,9.40
2022-11-18T04:52:31.662Z,9.30
2022-11-18T04:54:58.906Z,9.30
2022-11-18T04:57:26.143Z,9.30
2022-11-18T04:59:53.421Z,9.30
2022-11-18T05:02:20.679Z,9.30
2022-11-18T05:04:47.935Z,9.20
2022-11-18T05:07:16.353Z,9.30
2022-11-18T05:09:44.202Z,9.30
2022-11-18T05:12:32.277Z,9.20
2022-11-18T05:15:00.240Z,9.20
2022-11-18T05:17:27.559Z,9.30
2022-11-18T05:19:54.976Z,9.30
2022-11-18T05:22:22.313Z,9.30
2022-11-18T05:24:49.917Z,9.30
2022-11-18T05:27:20.922Z,9.30
2022-11-18T05:29:48.212Z,9.30
2022-11-18T05:32:15.643Z,9.30
2022-11-18T05:34:43.219Z,9.30
2022-11-18T05:37:10.883Z,9.30
2022-11-18T05:39:38.215Z,9.30
2022-11-18T05:42:24.096Z,9.30
2022-11-18T05:44:56.348Z,9.30
2022-11-18T05:47:25.378Z,9.30
2022-11-18T05:49:52.605Z,9.30
2022-11-18T05:52:19.951Z,9.40
2022-11-18T05:54:50.624Z,9.70
2022-11-18T05:57:18.355Z,9.30
2022-11-18T05:59:45.921Z,9.40
2022-11-18T06:02:18.202Z,9.40
2022-11-18T06:04:56.891Z,9.40
2022-11-18T06:07:54.264Z,9.40
2022-11-18T06:10:25.875Z,9.50
2022-11-18T06:12:57.236Z,9.40
2022-11-18T06:15:28.312Z,9.50
2022-11-18T06:18:11.985Z,9.40
2022-11-18T06:20:41.234Z,9.40
2022-11-18T06:23:08.594Z,9.40
2022-11-18T06:25:39.950Z,9.40
2022-11-18T06:28:09.468Z,9.40
2022-11-18T06:30:36.722Z,9.90
2022-11-18T06:33:04.159Z,9.50
2022-11-18T06:35:31.425Z,9.40
2022-11-18T06:37:58.973Z,9.50
2022-11-18T06:40:29.306Z,9.50
2022-11-18T06:43:24.497Z,9.50
2022-11-18T06:46:10.344Z,9.50
2022-11-18T06:48:37.876Z,9.50
2022-11-18T06:51:06.188Z,9.50
2022-11-18T06:53:35.318Z,9.40
2022-11-18T06:56:07.287Z,9.40
2022-11-18T06:58:35.181Z,9.40
2022-11-18T07:01:16.528Z,9.40
2022-11-18T07:03:45.516Z,9.40
2022-11-18T07:06:17.811Z,9.50
2022-11-18T07:08:45.527Z,9.50
2022-11-18T07:11:16.352Z,9.50
2022-11-18T07:13:45.500Z,9.50
2022-11-18T07:16:15.922Z,9.50
2022-11-18T07:18:44.669Z,10.70
2022-11-18T07:21:17.072Z,9.50
2022-11-18T07:23:45.177Z,9.40
2022-11-18T07:26:13.079Z,9.50
2022-11-18T07:28:40.710Z,9.50
2022-11-18T07:31:27.372Z,9.50
2022-11-18T07:33:54.765Z,9.50
2022-11-18T07:36:32.291Z,9.30
2022-11-18T07:39:04.281Z,9.50
2022-11-18T07:41:31.611Z,9.60
2022-11-18T07:44:02.069Z,9.40
2022-11-18T07:46:33.578Z,9.40
2022-11-18T07:49:02.575Z,9.50
2022-11-18T07:51:32.740Z,9.40
2022-11-18T07:54:00.123Z,9.30
2022-11-18T07:56:27.486Z,9.40
2022-11-18T07:58:55.687Z,9.40
2022-11-18T08:01:25.456Z,9.40
2022-11-18T08:03:52.825Z,9.30
2022-11-18T08:06:20.284Z,9.40
2022-11-18T08:08:48.409Z,9.40
2022-11-18T08:11:22.277Z,9.40
2022-11-18T08:13:51.615Z,9.50
2022-11-18T08:16:21.789Z,9.40
2022-11-18T08:18:49.692Z,9.50
2022-11-18T08:21:18.712Z,9.50
2022-11-18T08:23:56.917Z,9.50
2022-11-18T08:26:25.107Z,9.50
2022-11-18T08:28:52.694Z,9.50
2022-11-18T08:31:24.875Z,9.60
2022-11-18T08:34:06.945Z,9.60
2022-11-18T08:36:36.871Z,9.40
2022-11-18T08:39:07.565Z,9.60
2022-11-18T08:41:40.376Z,9.60
2022-11-18T08:44:10.208Z,9.60
2022-11-18T08:46:37.476Z,9.60
2022-11-18T08:49:04.920Z,9.70
2022-11-18T08:51:32.384Z,9.70
2022-11-18T08:53:59.752Z,9.70
2022-11-18T08:56:27.192Z,9.70
2022-11-18T08:58:54.807Z,9.70
2022-11-18T09:01:22.718Z,9.80
2022-11-18T09:03:50.250Z,9.80
2022-11-18T09:06:20.306Z,9.80
2022-11-18T09:08:47.695Z,9.80
2022-11-18T09:11:21.299Z,9.80
2022-11-18T09:16:39.031Z,9.90
2022-11-18T09:19:39.666Z,9.90
2022-11-18T09:21:53.691Z,9.90
2022-11-18T09:24:21.129Z,9.90
2022-11-18T09:26:49.939Z,9.90
2022-11-18T09:29:17.431Z,9.80
2022-11-18T09:31:44.699Z,9.80
2022-11-18T09:34:11.958Z,9.80
2022-11-18T09:36:39.217Z,9.80
2022-11-18T09:39:06.482Z,9.80
2022-11-18T09:41:47.200Z,9.80
2022-11-18T09:44:39.955Z,10.40
2022-11-18T09:47:26.604Z,9.80
2022-11-18T09:49:59.275Z,9.80
2022-11-18T09:52:38.978Z,9.80
2022-11-18T09:55:15.189Z,9.80
2022-11-18T09:57:46.896Z,9.90
2022-11-18T10:00:21.944Z,9.80
2022-11-18T10:03:00.700Z,10.70
2022-11-18T10:05:41.967Z,9.90
2022-11-18T10:08:35.103Z,9.90
2022-11-18T10:11:26.998Z,9.00
2022-11-18T10:14:06.033Z,10.00
2022-11-18T10:16:57.969Z,9.90
2022-11-18T10:19:52.764Z,10.00
2022-11-18T10:22:34.908Z,10.00
2022-11-18T10:25:02.340Z,9.90
2022-11-18T10:27:40.671Z,10.00
2022-11-18T10:30:23.111Z,10.10
2022-11-18T10:32:54.426Z,10.00
2022-11-18T10:35:36.965Z,10.10
2022-11-18T10:38:08.862Z,10.10
2022-11-18T10:40:41.145Z,10.10
2022-11-18T10:43:10.795Z,10.10
2022-11-18T10:45:38.050Z,10.10
2022-11-18T10:48:08.795Z,10.10
2022-11-18T10:50:39.136Z,10.20
2022-11-18T10:53:27.159Z,10.20
2022-11-18T10:56:02.467Z,10.20
2022-11-18T10:58:32.066Z,10.20
2022-11-18T11:01:27.149Z,10.20
2022-11-18T11:04:12.424Z,10.30
2022-11-18T11:06:39.873Z,10.30
2022-11-18T11:09:15.928Z,10.30
2022-11-18T11:12:00.223Z,10.30
2022-11-18T11:14:51.188Z,10.20
2022-11-18T11:17:27.081Z,10.30
2022-11-18T11:20:13.758Z,10.50
2022-11-18T11:22:43.011Z,10.30
2022-11-18T11:25:16.004Z,10.40
2022-11-18T11:28:19.197Z,10.40
2022-11-18T11:31:12.808Z,10.40
2022-11-18T11:34:00.841Z,10.40
2022-11-18T11:36:50.506Z,10.60
2022-11-18T11:39:39.406Z,10.50
2022-11-18T11:42:34.422Z,10.50
2022-11-18T11:45:36.278Z,10.50
2022-11-18T11:48:22.917Z,10.50
2022-11-18T11:51:03.586Z,10.60
2022-11-18T11:53:37.620Z,10.60
2022-11-18T11:56:29.652Z,10.60
2022-11-18T11:59:08.843Z,10.60
2022-11-18T12:01:54.374Z,10.70
2022-11-18T12:05:05.757Z,10.70
2022-11-18T12:07:42.484Z,10.70
2022-11-18T12:10:31.815Z,10.70
2022-11-18T12:13:30.976Z,10.70
2022-11-18T12:16:28.017Z,10.70
2022-11-18T12:19:12.433Z,10.80
2022-11-18T12:21:45.680Z,11.50
2022-11-18T12:24:31.363Z,10.80
2022-11-18T12:27:06.173Z,10.90
2022-11-18T12:29:39.787Z,11.20
2022-11-18T12:32:29.269Z,10.90
2022-11-18T12:35:29.727Z,10.90
2022-11-18T12:37:58.316Z,10.90
2022-11-18T12:40:39.444Z,10.90
2022-11-18T12:43:44.138Z,10.90
2022-11-18T12:46:45.430Z,10.90
2022-11-18T12:49:22.269Z,11.00
2022-11-18T12:51:50.157Z,11.00
2022-11-18T12:54:34.232Z,11.00
2022-11-18T12:57:20.774Z,11.00
2022-11-18T12:59:48.213Z,11.10
2022-11-18T13:02:19.919Z,11.10
2022-11-18T13:05:08.909Z,11.20
2022-11-18T13:08:06.334Z,11.30
2022-11-18T13:10:35.090Z,11.30
2022-11-18T13:13:02.944Z,11.30
2022-11-18T13:15:49.002Z,11.30
2022-11-18T13:18:20.131Z,11.30
2022-11-18T13:20:58.883Z,11.30
2022-11-18T13:23:52.034Z,11.30
2022-11-18T13:26:30.947Z,11.30
2022-11-18T13:29:22.771Z,11.30
2022-11-18T13:32:23.207Z,11.30
2022-11-18T13:34:52.846Z,10.80
2022-11-18T13:37:23.195Z,11.30
2022-11-18T13:39:51.224Z,11.30
2022-11-18T13:42:22.541Z,11.40
2022-11-18T13:44:57.535Z,11.40
2022-11-18T13:47:36.929Z,11.50
2022-11-18T13:50:22.771Z,11.60
2022-11-18T13:53:04.570Z,11.60
2022-11-18T13:55:36.359Z,11.60
2022-11-18T13:58:07.504Z,11.60
2022-11-18T14:00:36.102Z,11.60
2022-11-18T14:03:21.645Z,11.50
2022-11-18T14:05:56.118Z,11.50
2022-11-18T14:08:28.633Z,11.40
2022-11-18T14:10:56.378Z,11.40
2022-11-18T14:13:30.438Z,11.40
2022-11-18T14:16:00.215Z,11.40
2022-11-18T14:18:34.347Z,11.40
2022-11-18T14:21:04.163Z,11.40
2022-11-18T14:23:36.288Z,11.40
2022-11-18T14:26:06.221Z,11.40
2022-11-18T14:28:37.348Z,11.40
2022-11-18T14:31:22.243Z,11.50
2022-11-18T14:34:14.311Z,11.50
2022-11-18T14:36:41.624Z,11.50
2022-11-18T14:39:27.486Z,11.50
2022-11-18T14:41:56.180Z,11.60
2022-11-18T14:44:25.519Z,11.50
2022-11-18T14:46:59.546Z,11.50
2022-11-18T14:49:28.176Z,11.50
2022-11-18T14:51:55.778Z,11.50
2022-11-18T14:54:27.633Z,11.50
2022-11-18T14:57:03.323Z,11.50
2022-11-18T14:59:30.942Z,11.50
2022-11-18T15:01:58.780Z,11.50
2022-11-18T15:04:26.396Z,11.50
2022-11-18T15:06:53.914Z,11.50
2022-11-18T15:09:21.665Z,11.50
2022-11-18T15:11:48.994Z,11.40
2022-11-18T15:14:16.497Z,11.50
2022-11-18T15:16:43.973Z,11.50
2022-11-18T15:19:15.397Z,11.50
2022-11-18T15:21:44.035Z,11.50
2022-11-18T15:24:11.305Z,11.50
2022-11-18T15:26:44.013Z,11.50
2022-11-18T15:29:25.055Z,11.60
2022-11-18T15:31:52.641Z,11.60
2022-11-18T15:34:21.689Z,11.60
2022-11-18T15:36:49.544Z,11.50
2022-11-18T15:39:16.866Z,11.60
2022-11-18T15:41:44.184Z,11.50
2022-11-18T15:44:12.050Z,11.60
2022-11-18T15:46:39.589Z,11.50
2022-11-18T15:49:09.537Z,11.60
2022-11-18T15:51:37.287Z,11.50
2022-11-18T15:54:04.633Z,11.50
2022-11-18T15:56:33.079Z,11.50
2022-11-18T15:59:15.211Z,11.50
2022-11-18T16:01:45.507Z,11.50
2022-11-18T16:04:15.038Z,11.40
2022-11-18T16:06:43.633Z,11.40
2022-11-18T16:09:12.339Z,11.40
2022-11-18T16:11:58.174Z,11.50
2022-11-18T16:14:25.720Z,11.40
2022-11-18T16:16:54.964Z,11.40
2022-11-18T16:19:24.737Z,11.40
2022-11-18T16:21:55.051Z,11.40
2022-11-18T16:24:25.549Z,11.40
2022-11-18T16:26:53.430Z,11.40
2022-11-18T16:29:21.381Z,11.40
2022-11-18T16:31:53.210Z,11.30
2022-11-18T16:34:26.294Z,11.40
2022-11-18T16:36:59.960Z,11.30
2022-11-18T16:39:28.398Z,11.30
2022-11-18T16:42:07.487Z,11.30
2022-11-18T16:44:36.612Z,11.30
2022-11-18T16:47:09.225Z,11.30
2022-11-18T16:49:41.621Z,11.30
2022-11-18T16:52:09.487Z,11.30
2022-11-18T16:54:42.939Z,11.30
2022-11-18T16:57:11.938Z,11.30
2022-11-18T16:59:39.193Z,11.30
2022-11-18T17:02:06.756Z,11.50
2022-11-18T17:04:36.373Z,11.30
2022-11-18T17:07:03.843Z,11.20
2022-11-18T17:09:31.238Z,11.30
2022-11-18T17:11:58.712Z,11.30
2022-11-18T17:14:26.344Z,11.30
2022-11-18T17:16:53.615Z,11.30
2022-11-18T17:19:23.745Z,11.30
2022-11-18T17:21:52.086Z,11.40
2022-11-18T17:24:22.215Z,11.40
2022-11-18T17:26:50.764Z,11.40
2022-11-18T17:29:18.424Z,11.40
2022-11-18T17:31:45.920Z,11.40
2022-11-18T17:34:14.628Z,11.30
2022-11-18T17:36:42.780Z,11.30
2022-11-18T17:39:11.907Z,11.30
2022-11-18T17:41:58.040Z,11.30
2022-11-18T17:44:26.867Z,11.30
2022-11-18T17:46:54.216Z,11.20
2022-11-18T17:49:22.347Z,11.30
2022-11-18T17:51:51.325Z,11.30
2022-11-18T17:54:20.170Z,11.30
2022-11-18T17:56:48.227Z,11.30
2022-11-18T17:59:17.435Z,11.30
2022-11-18T18:01:46.212Z,11.30
2022-11-18T18:04:21.571Z,11.30
2022-11-18T18:06:51.306Z,11.30
2022-11-18T18:09:22.783Z,11.30
2022-11-18T18:11:52.664Z,11.30
2022-11-18T18:14:20.282Z,11.30
2022-11-18T18:16:49.961Z,11.30
2022-11-18T18:19:19.762Z,11.20
2022-11-18T18:21:47.584Z,11.20
2022-11-18T18:24:17.554Z,11.30
2022-11-18T18:26:45.323Z,11.20
2022-11-18T18:29:13.085Z,11.20
2022-11-18T18:31:40.570Z,11.20
2022-11-18T18:34:07.882Z,11.20
2022-11-18T18:36:35.565Z,11.60
2022-11-18T18:39:03.302Z,11.30
2022-11-18T18:41:31.287Z,11.20
2022-11-18T18:43:58.607Z,11.20
2022-11-18T18:46:33.659Z,11.20
2022-11-18T18:49:07.049Z,11.20
2022-11-18T18:51:39.860Z,11.20
2022-11-18T18:54:10.498Z,11.20
2022-11-18T18:56:40.960Z,11.20
2022-11-18T18:59:09.354Z,11.20
2022-11-18T19:01:37.765Z,11.20
2022-11-18T19:04:07.628Z,11.20
2022-11-18T19:09:26.912Z,11.10
2022-11-18T19:12:12.980Z,11.20
2022-11-18T19:14:40.488Z,11.20
2022-11-18T19:17:12.560Z,11.20
2022-11-18T19:20:01.513Z,11.20
2022-11-18T19:22:31.262Z,11.20
2022-11-18T19:24:59.798Z,11.10
2022-11-18T19:27:27.716Z,11.10
2022-11-18T19:29:54.993Z,11.10
2022-11-18T19:32:22.394Z,11.10
2022-11-18T19:34:49.639Z,11.10
2022-11-18T19:37:16.931Z,11.10
2022-11-18T19:39:44.171Z,11.00
2022-11-18T19:42:11.449Z,11.10
2022-11-18T19:44:39.518Z,11.10
2022-11-18T19:47:06.919Z,11.30
2022-11-18T19:49:34.198Z,11.00
2022-11-18T19:52:01.885Z,11.00
2022-11-18T19:54:29.229Z,11.00
2022-11-18T19:56:56.506Z,11.00
2022-11-18T19:59:23.821Z,11.10
2022-11-18T20:01:51.136Z,11.10
2022-11-18T20:04:18.502Z,11.00
2022-11-18T20:06:46.056Z,11.10
2022-11-18T20:09:13.519Z,11.00
2022-11-18T20:11:40.968Z,11.10
2022-11-18T20:14:09.958Z,11.00
2022-11-18T20:16:37.877Z,11.00
2022-11-18T20:19:13.561Z,11.00
2022-11-18T20:21:43.383Z,11.00
2022-11-18T20:24:16.025Z,11.00
2022-11-18T20:26:44.489Z,11.00
2022-11-18T20:29:11.945Z,11.00
2022-11-18T20:31:39.265Z,11.00
2022-11-18T20:34:06.628Z,11.10
2022-11-18T20:36:36.131Z,11.00
2022-11-18T20:39:06.923Z,10.60
2022-11-18T20:41:36.324Z,11.00
2022-11-18T20:44:04.127Z,11.00
2022-11-18T20:46:31.751Z,11.00
2022-11-18T20:48:59.032Z,11.00
2022-11-18T20:51:28.135Z,11.00
2022-11-18T20:53:57.470Z,10.90
2022-11-18T20:56:26.722Z,10.90
2022-11-18T20:58:56.683Z,12.20
2022-11-18T21:01:26.816Z,10.90
2022-11-18T21:03:57.347Z,11.00
2022-11-18T21:06:28.069Z,10.90
2022-11-18T21:08:58.007Z,10.90
2022-11-18T21:11:26.736Z,10.90
2022-11-18T21:14:16.028Z,10.90
2022-11-18T21:16:46.118Z,10.90
2022-11-18T21:19:14.511Z,10.90
2022-11-18T21:21:44.855Z,10.80
2022-11-18T21:24:13.115Z,10.90
2022-11-18T21:26:41.143Z,10.80
2022-11-18T21:29:11.029Z,10.80
2022-11-18T21:31:39.213Z,10.90
2022-11-18T21:34:07.538Z,10.90
2022-11-18T21:36:37.905Z,10.90
2022-11-18T21:39:09.349Z,10.90
2022-11-18T21:41:37.002Z,10.90
2022-11-18T21:44:06.496Z,10.90
2022-11-18T21:46:35.776Z,10.80
2022-11-18T21:49:04.639Z,10.80
2022-11-18T21:51:32.870Z,10.80
2022-11-18T21:54:01.117Z,10.60
2022-11-18T21:56:31.089Z,10.70
2022-11-18T21:59:00.432Z,10.80
2022-11-18T22:01:33.447Z,10.80
2022-11-18T22:04:03.932Z,10.70
2022-11-18T22:06:33.625Z,10.70
2022-11-18T22:09:02.336Z,10.70
2022-11-18T22:11:29.742Z,10.70
2022-11-18T22:13:57.346Z,10.70
2022-11-18T22:16:25.995Z,10.60
2022-11-18T22:18:59.050Z,10.70
2022-11-18T22:21:29.977Z,10.70
2022-11-18T22:23:59.503Z,10.70
2022-11-18T22:26:27.601Z,11.10
2022-11-18T22:28:56.972Z,10.60
2022-11-18T22:31:26.309Z,10.70
2022-11-18T22:33:54.596Z,10.80
2022-11-18T22:36:24.998Z,10.50
2022-11-18T22:38:53.534Z,10.50
2022-11-18T22:41:41.749Z,10.30
2022-11-18T22:44:10.617Z,10.50
2022-11-18T22:46:39.407Z,10.40
2022-11-18T22:49:07.821Z,10.50
2022-11-18T22:51:36.763Z,10.50
2022-11-18T22:54:36.530Z,10.50
2022-11-18T22:56:53.930Z,10.50
2022-11-18T22:59:21.728Z,10.60
2022-11-18T23:01:53.764Z,11.40
2022-11-18T23:04:21.333Z,10.50
2022-11-18T23:06:49.774Z,10.30
2022-11-18T23:09:17.776Z,10.40
2022-11-18T23:12:03.867Z,10.40
2022-11-18T23:14:31.561Z,10.40
2022-11-18T23:17:00.251Z,10.40
2022-11-18T23:19:27.584Z,10.40
2022-11-18T23:21:54.863Z,10.40
2022-11-18T23:24:22.230Z,10.30
2022-11-18T23:26:50.068Z,10.40
2022-11-18T23:29:18.656Z,10.30
2022-11-18T23:31:46.292Z,10.30
2022-11-18T23:34:15.692Z,10.30
2022-11-18T23:36:43.348Z,10.30
2022-11-18T23:39:11.118Z,10.30
2022-11-18T23:41:38.823Z,10.30
2022-11-18T23:44:06.641Z,10.30
2022-11-18T23:46:34.485Z,10.30
2022-11-18T23:49:01.731Z,10.80
2022-11-18T23:51:29.063Z,10.20
2022-11-18T23:53:57.387Z,10.20
2022-11-18T23:56:26.811Z,10.20
2022-11-18T23:58:56.676Z,10.20
